sensor_id;sensor_type;location;lat;lon;timestamp;temperature;humidity
31735;DHT22;18313;48.518;9.124;2023-03-11T00:00:21;2.70;99.90
31735;DHT22;18313;48.518;9.124;2023-03-11T00:02:51;2.70;99.90
31735;DHT22;18313;48.518;9.124;2023-03-11T00:05:22;2.70;99.90
31735;DHT22;18313;48.518;9.124;2023-03-11T00:07:50;2.70;99.90
31735;DHT22;18313;48.518;9.124;2023-03-11T00:10:29;2.60;99.90
31735;DHT22;18313;48.518;9.124;2023-03-11T00:12:58;2.60;99.90
31735;DHT22;18313;48.518;9.124;2023-03-11T00:15:25;2.60;99.90
31735;DHT22;18313;48.518;9.124;2023-03-11T00:17:53;2.60;99.90
31735;DHT22;18313;48.518;9.124;2023-03-11T00:20:23;2.50;99.90
31735;DHT22;18313;48.518;9.124;2023-03-11T00:22:51;2.50;99.90
31735;DHT22;18313;48.518;9.124;2023-03-11T00:25:20;2.50;99.90
31735;DHT22;18313;48.518;9.124;2023-03-11T00:27:47;2.40;99.90
31735;DHT22;18313;48.518;9.124;2023-03-11T00:30:15;2.40;99.90
31735;DHT22;18313;48.518;9.124;2023-03-11T00:32:42;2.40;99.90
31735;DHT22;18313;48.518;9.124;2023-03-11T00:35:15;2.30;99.90
31735;DHT22;18313;48.518;9.124;2023-03-11T00:37:44;2.30;99.90
31735;DHT22;18313;48.518;9.124;2023-03-11T00:40:13;2.40;99.90
31735;DHT22;18313;48.518;9.124;2023-03-11T00:42:41;2.50;99.90
31735;DHT22;18313;48.518;9.124;2023-03-11T00:45:09;2.50;99.90
31735;DHT22;18313;48.518;9.124;2023-03-11T00:47:37;2.50;99.90
31735;DHT22;18313;48.518;9.124;2023-03-11T00:50:07;2.50;99.90
31735;DHT22;18313;48.518;9.124;2023-03-11T00:52:35;2.40;99.90
31735;DHT22;18313;48.518;9.124;2023-03-11T00:55:04;2.50;99.90
31735;DHT22;18313;48.518;9.124;2023-03-11T00:57:31;2.50;99.90
31735;DHT22;18313;48.518;9.124;2023-03-11T00:59:59;2.50;99.90
31735;DHT22;18313;48.518;9.124;2023-03-11T01:02:27;2.50;99.90
31735;DHT22;18313;48.518;9.124;2023-03-11T01:04:54;2.50;99.90
31735;DHT22;18313;48.518;9.124;2023-03-11T01:07:22;2.50;99.90
31735;DHT22;18313;48.518;9.124;2023-03-11T01:09:50;2.50;99.90
31735;DHT22;18313;48.518;9.124;2023-03-11T01:12:17;2.60;99.90
31735;DHT22;18313;48.518;9.124;2023-03-11T01:14:44;2.60;99.90
31735;DHT22;18313;48.518;9.124;2023-03-11T01:17:11;2.60;99.90
31735;DHT22;18313;48.518;9.124;2023-03-11T01:19:38;2.60;99.90
31735;DHT22;18313;48.518;9.124;2023-03-11T01:22:05;2.60;99.90
31735;DHT22;18313;48.518;9.124;2023-03-11T01:24:32;2.60;99.90
31735;DHT22;18313;48.518;9.124;2023-03-11T01:26:59;2.60;99.90
31735;DHT22;18313;48.518;9.124;2023-03-11T01:29:26;2.60;99.90
31735;DHT22;18313;48.518;9.124;2023-03-11T01:31:53;2.60;99.90
31735;DHT22;18313;48.518;9.124;2023-03-11T01:34:20;2.60;99.90
31735;DHT22;18313;48.518;9.124;2023-03-11T01:36:47;2.70;99.90
31735;DHT22;18313;48.518;9.124;2023-03-11T01:39:14;2.70;99.90
31735;DHT22;18313;48.518;9.124;2023-03-11T01:41:41;2.70;99.90
31735;DHT22;18313;48.518;9.124;2023-03-11T01:44:11;2.70;99.90
31735;DHT22;18313;48.518;9.124;2023-03-11T01:49:22;2.60;99.90
31735;DHT22;18313;48.518;9.124;2023-03-11T01:52:04;2.70;99.90
31735;DHT22;18313;48.518;9.124;2023-03-11T01:54:36;2.70;99.90
31735;DHT22;18313;48.518;9.124;2023-03-11T01:57:08;2.70;99.90
31735;DHT22;18313;48.518;9.124;2023-03-11T01:59:38;2.70;99.90
31735;DHT22;18313;48.518;9.124;2023-03-11T02:02:30;2.70;99.90
31735;DHT22;18313;48.518;9.124;2023-03-11T02:05:01;2.70;99.90
31735;DHT22;18313;48.518;9.124;2023-03-11T02:07:29;2.70;99.90
31735;DHT22;18313;48.518;9.124;2023-03-11T02:09:56;2.70;99.90
31735;DHT22;18313;48.518;9.124;2023-03-11T02:12:23;2.60;99.90
31735;DHT22;18313;48.518;9.124;2023-03-11T02:14:51;2.60;99.90
31735;DHT22;18313;48.518;9.124;2023-03-11T02:17:20;2.50;99.90
31735;DHT22;18313;48.518;9.124;2023-03-11T02:22:44;2.50;99.90
31735;DHT22;18313;48.518;9.124;2023-03-11T02:25:42;2.50;99.90
31735;DHT22;18313;48.518;9.124;2023-03-11T02:28:13;2.50;99.90
31735;DHT22;18313;48.518;9.124;2023-03-11T02:30:42;2.50;99.90
31735;DHT22;18313;48.518;9.124;2023-03-11T02:33:10;2.50;99.90
31735;DHT22;18313;48.518;9.124;2023-03-11T02:35:39;2.40;99.90
31735;DHT22;18313;48.518;9.124;2023-03-11T02:38:06;2.40;99.90
31735;DHT22;18313;48.518;9.124;2023-03-11T02:40:37;2.40;99.90
31735;DHT22;18313;48.518;9.124;2023-03-11T02:43:08;2.40;99.90
31735;DHT22;18313;48.518;9.124;2023-03-11T02:45:37;2.30;99.90
31735;DHT22;18313;48.518;9.124;2023-03-11T02:48:07;2.40;99.90
31735;DHT22;18313;48.518;9.124;2023-03-11T02:50:36;2.40;99.90
31735;DHT22;18313;48.518;9.124;2023-03-11T02:53:04;2.40;99.90
31735;DHT22;18313;48.518;9.124;2023-03-11T02:55:32;2.30;99.90
31735;DHT22;18313;48.518;9.124;2023-03-11T02:57:59;2.30;99.90
31735;DHT22;18313;48.518;9.124;2023-03-11T03:00:26;2.30;99.90
31735;DHT22;18313;48.518;9.124;2023-03-11T03:02:54;2.30;99.90
31735;DHT22;18313;48.518;9.124;2023-03-11T03:05:21;2.20;99.90
31735;DHT22;18313;48.518;9.124;2023-03-11T03:07:49;2.10;99.90
31735;DHT22;18313;48.518;9.124;2023-03-11T03:10:18;2.10;99.90
31735;DHT22;18313;48.518;9.124;2023-03-11T03:12:45;2.10;99.90
31735;DHT22;18313;48.518;9.124;2023-03-11T03:15:12;2.10;99.90
31735;DHT22;18313;48.518;9.124;2023-03-11T03:17:41;2.10;99.90
31735;DHT22;18313;48.518;9.124;2023-03-11T03:20:09;2.00;99.90
31735;DHT22;18313;48.518;9.124;2023-03-11T03:22:38;2.00;99.90
31735;DHT22;18313;48.518;9.124;2023-03-11T03:25:05;1.90;99.90
31735;DHT22;18313;48.518;9.124;2023-03-11T03:27:33;1.80;99.90
31735;DHT22;18313;48.518;9.124;2023-03-11T03:30:00;1.80;99.90
31735;DHT22;18313;48.518;9.124;2023-03-11T03:32:28;1.80;99.90
31735;DHT22;18313;48.518;9.124;2023-03-11T03:34:55;1.80;99.90
31735;DHT22;18313;48.518;9.124;2023-03-11T03:37:26;1.70;99.90
31735;DHT22;18313;48.518;9.124;2023-03-11T03:39:53;1.70;99.90
31735;DHT22;18313;48.518;9.124;2023-03-11T03:42:21;1.60;99.90
31735;DHT22;18313;48.518;9.124;2023-03-11T03:44:48;1.60;99.90
31735;DHT22;18313;48.518;9.124;2023-03-11T03:47:15;1.50;99.90
31735;DHT22;18313;48.518;9.124;2023-03-11T03:49:42;1.40;99.90
31735;DHT22;18313;48.518;9.124;2023-03-11T03:52:09;1.40;99.90
31735;DHT22;18313;48.518;9.124;2023-03-11T03:54:36;1.40;99.90
31735;DHT22;18313;48.518;9.124;2023-03-11T03:57:04;1.40;99.90
31735;DHT22;18313;48.518;9.124;2023-03-11T03:59:31;1.30;99.90
31735;DHT22;18313;48.518;9.124;2023-03-11T04:01:59;1.30;99.90
31735;DHT22;18313;48.518;9.124;2023-03-11T04:04:27;1.20;99.90
31735;DHT22;18313;48.518;9.124;2023-03-11T04:06:54;1.20;99.90
31735;DHT22;18313;48.518;9.124;2023-03-11T04:09:21;1.10;99.90
31735;DHT22;18313;48.518;9.124;2023-03-11T04:11:49;1.00;99.90
31735;DHT22;18313;48.518;9.124;2023-03-11T04:14:16;1.00;99.90
31735;DHT22;18313;48.518;9.124;2023-03-11T04:16:43;1.00;99.90
31735;DHT22;18313;48.518;9.124;2023-03-11T04:19:10;1.00;99.90
31735;DHT22;18313;48.518;9.124;2023-03-11T04:21:37;1.00;99.90
31735;DHT22;18313;48.518;9.124;2023-03-11T04:24:05;0.90;99.90
31735;DHT22;18313;48.518;9.124;2023-03-11T04:26:32;0.90;99.90
31735;DHT22;18313;48.518;9.124;2023-03-11T04:28:59;0.90;99.90
31735;DHT22;18313;48.518;9.124;2023-03-11T04:31:27;0.90;99.90
31735;DHT22;18313;48.518;9.124;2023-03-11T04:33:54;0.90;99.90
31735;DHT22;18313;48.518;9.124;2023-03-11T04:36:21;0.80;99.90
31735;DHT22;18313;48.518;9.124;2023-03-11T04:38:48;0.80;99.90
31735;DHT22;18313;48.518;9.124;2023-03-11T04:41:16;0.80;99.90
31735;DHT22;18313;48.518;9.124;2023-03-11T04:43:43;0.70;99.90
31735;DHT22;18313;48.518;9.124;2023-03-11T04:46:10;0.70;99.90
31735;DHT22;18313;48.518;9.124;2023-03-11T04:48:38;0.70;99.90
31735;DHT22;18313;48.518;9.124;2023-03-11T04:51:05;0.60;99.90
31735;DHT22;18313;48.518;9.124;2023-03-11T04:53:33;0.60;99.90
31735;DHT22;18313;48.518;9.124;2023-03-11T04:56:00;0.60;99.90
31735;DHT22;18313;48.518;9.124;2023-03-11T04:58:28;0.70;99.90
31735;DHT22;18313;48.518;9.124;2023-03-11T05:00:55;0.50;99.90
31735;DHT22;18313;48.518;9.124;2023-03-11T05:03:23;0.60;99.90
31735;DHT22;18313;48.518;9.124;2023-03-11T05:05:50;0.50;99.90
31735;DHT22;18313;48.518;9.124;2023-03-11T05:08:21;0.60;99.90
31735;DHT22;18313;48.518;9.124;2023-03-11T05:10:50;0.50;99.90
31735;DHT22;18313;48.518;9.124;2023-03-11T05:13:19;0.40;99.90
31735;DHT22;18313;48.518;9.124;2023-03-11T05:15:46;0.50;99.90
31735;DHT22;18313;48.518;9.124;2023-03-11T05:18:14;0.40;99.90
31735;DHT22;18313;48.518;9.124;2023-03-11T05:20:41;0.30;99.90
31735;DHT22;18313;48.518;9.124;2023-03-11T05:23:08;0.30;99.90
31735;DHT22;18313;48.518;9.124;2023-03-11T05:25:35;0.30;99.90
31735;DHT22;18313;48.518;9.124;2023-03-11T05:28:02;0.20;99.90
31735;DHT22;18313;48.518;9.124;2023-03-11T05:30:30;0.10;99.90
31735;DHT22;18313;48.518;9.124;2023-03-11T05:32:57;0.00;99.90
31735;DHT22;18313;48.518;9.124;2023-03-11T05:35:25;0.00;99.90
31735;DHT22;18313;48.518;9.124;2023-03-11T05:37:52;0.00;99.90
31735;DHT22;18313;48.518;9.124;2023-03-11T05:40:20;-0.10;99.90
31735;DHT22;18313;48.518;9.124;2023-03-11T05:42:47;-0.20;99.90
31735;DHT22;18313;48.518;9.124;2023-03-11T05:45:17;-0.20;99.90
31735;DHT22;18313;48.518;9.124;2023-03-11T05:47:44;-0.30;99.90
31735;DHT22;18313;48.518;9.124;2023-03-11T05:50:13;-0.30;99.90
31735;DHT22;18313;48.518;9.124;2023-03-11T05:52:40;-0.30;99.90
31735;DHT22;18313;48.518;9.124;2023-03-11T05:55:07;-0.30;99.90
31735;DHT22;18313;48.518;9.124;2023-03-11T05:57:38;-0.30;99.90
31735;DHT22;18313;48.518;9.124;2023-03-11T06:00:06;-0.30;99.90
31735;DHT22;18313;48.518;9.124;2023-03-11T06:02:39;-0.30;99.90
31735;DHT22;18313;48.518;9.124;2023-03-11T06:05:07;-0.30;99.90
31735;DHT22;18313;48.518;9.124;2023-03-11T06:07:37;-0.30;99.90
31735;DHT22;18313;48.518;9.124;2023-03-11T06:10:04;-0.30;99.90
31735;DHT22;18313;48.518;9.124;2023-03-11T06:12:33;-0.30;99.90
31735;DHT22;18313;48.518;9.124;2023-03-11T06:15:00;-0.30;99.90
31735;DHT22;18313;48.518;9.124;2023-03-11T06:17:27;-0.40;99.90
31735;DHT22;18313;48.518;9.124;2023-03-11T06:19:56;-0.40;99.90
31735;DHT22;18313;48.518;9.124;2023-03-11T06:22:23;-0.30;99.90
31735;DHT22;18313;48.518;9.124;2023-03-11T06:24:50;-0.30;99.90
31735;DHT22;18313;48.518;9.124;2023-03-11T06:27:17;-0.20;99.90
31735;DHT22;18313;48.518;9.124;2023-03-11T06:29:44;-0.20;99.90
31735;DHT22;18313;48.518;9.124;2023-03-11T06:32:14;-0.20;99.90
31735;DHT22;18313;48.518;9.124;2023-03-11T06:34:41;-0.20;99.90
31735;DHT22;18313;48.518;9.124;2023-03-11T06:37:08;-0.10;99.90
31735;DHT22;18313;48.518;9.124;2023-03-11T06:39:35;-0.10;99.90
31735;DHT22;18313;48.518;9.124;2023-03-11T06:42:03;0.00;99.90
31735;DHT22;18313;48.518;9.124;2023-03-11T06:44:30;0.10;99.90
31735;DHT22;18313;48.518;9.124;2023-03-11T06:46:57;0.00;99.90
31735;DHT22;18313;48.518;9.124;2023-03-11T06:49:24;0.10;99.90
31735;DHT22;18313;48.518;9.124;2023-03-11T06:51:51;0.10;99.90
31735;DHT22;18313;48.518;9.124;2023-03-11T06:54:18;0.10;99.90
31735;DHT22;18313;48.518;9.124;2023-03-11T06:56:45;0.20;99.90
31735;DHT22;18313;48.518;9.124;2023-03-11T06:59:14;0.30;99.90
31735;DHT22;18313;48.518;9.124;2023-03-11T07:01:41;0.50;99.90
31735;DHT22;18313;48.518;9.124;2023-03-11T07:04:09;0.70;99.90
31735;DHT22;18313;48.518;9.124;2023-03-11T07:06:36;0.80;99.90
31735;DHT22;18313;48.518;9.124;2023-03-11T07:09:04;1.00;99.90
31735;DHT22;18313;48.518;9.124;2023-03-11T07:11:31;1.00;99.90
31735;DHT22;18313;48.518;9.124;2023-03-11T07:13:59;1.10;99.90
31735;DHT22;18313;48.518;9.124;2023-03-11T07:16:28;1.20;99.90
31735;DHT22;18313;48.518;9.124;2023-03-11T07:18:58;1.30;99.90
31735;DHT22;18313;48.518;9.124;2023-03-11T07:21:27;1.40;99.90
31735;DHT22;18313;48.518;9.124;2023-03-11T07:23:56;1.50;99.90
31735;DHT22;18313;48.518;9.124;2023-03-11T07:26:25;1.60;99.90
31735;DHT22;18313;48.518;9.124;2023-03-11T07:28:53;1.60;99.90
31735;DHT22;18313;48.518;9.124;2023-03-11T07:31:25;1.70;99.90
31735;DHT22;18313;48.518;9.124;2023-03-11T07:33:53;1.80;99.90
31735;DHT22;18313;48.518;9.124;2023-03-11T07:36:22;1.80;99.90
31735;DHT22;18313;48.518;9.124;2023-03-11T07:39:00;1.90;99.90
31735;DHT22;18313;48.518;9.124;2023-03-11T07:41:32;1.90;99.90
31735;DHT22;18313;48.518;9.124;2023-03-11T07:44:00;2.00;99.90
31735;DHT22;18313;48.518;9.124;2023-03-11T07:46:28;2.00;99.90
31735;DHT22;18313;48.518;9.124;2023-03-11T07:48:55;2.00;99.90
31735;DHT22;18313;48.518;9.124;2023-03-11T07:51:25;1.90;99.90
31735;DHT22;18313;48.518;9.124;2023-03-11T07:53:54;1.90;99.90
31735;DHT22;18313;48.518;9.124;2023-03-11T07:56:26;2.00;99.90
31735;DHT22;18313;48.518;9.124;2023-03-11T07:58:54;2.00;99.90
31735;DHT22;18313;48.518;9.124;2023-03-11T08:01:23;1.90;99.90
31735;DHT22;18313;48.518;9.124;2023-03-11T08:03:52;2.00;99.90
31735;DHT22;18313;48.518;9.124;2023-03-11T08:06:27;2.10;99.90
31735;DHT22;18313;48.518;9.124;2023-03-11T08:08:58;2.30;99.90
31735;DHT22;18313;48.518;9.124;2023-03-11T08:11:26;2.40;99.90
31735;DHT22;18313;48.518;9.124;2023-03-11T08:13:53;2.60;99.90
31735;DHT22;18313;48.518;9.124;2023-03-11T08:16:21;2.70;99.90
31735;DHT22;18313;48.518;9.124;2023-03-11T08:18:49;2.70;99.90
31735;DHT22;18313;48.518;9.124;2023-03-11T08:21:26;2.80;99.90
31735;DHT22;18313;48.518;9.124;2023-03-11T08:23:59;2.90;99.90
31735;DHT22;18313;48.518;9.124;2023-03-11T08:26:27;2.90;99.90
31735;DHT22;18313;48.518;9.124;2023-03-11T08:28:55;3.00;99.90
31735;DHT22;18313;48.518;9.124;2023-03-11T08:31:26;3.00;99.90
31735;DHT22;18313;48.518;9.124;2023-03-11T08:33:57;3.10;99.90
31735;DHT22;18313;48.518;9.124;2023-03-11T08:36:24;3.10;99.90
31735;DHT22;18313;48.518;9.124;2023-03-11T08:38:51;3.10;99.90
31735;DHT22;18313;48.518;9.124;2023-03-11T08:41:19;3.30;99.90
31735;DHT22;18313;48.518;9.124;2023-03-11T08:43:46;3.30;99.90
31735;DHT22;18313;48.518;9.124;2023-03-11T08:46:31;3.60;99.90
31735;DHT22;18313;48.518;9.124;2023-03-11T08:48:59;3.70;99.90
31735;DHT22;18313;48.518;9.124;2023-03-11T08:51:28;3.90;99.90
31735;DHT22;18313;48.518;9.124;2023-03-11T08:53:55;4.00;99.10
31735;DHT22;18313;48.518;9.124;2023-03-11T08:56:22;3.90;98.70
31735;DHT22;18313;48.518;9.124;2023-03-11T08:58:49;4.00;99.90
31735;DHT22;18313;48.518;9.124;2023-03-11T09:01:17;4.40;99.90
31735;DHT22;18313;48.518;9.124;2023-03-11T09:03:46;4.70;99.90
31735;DHT22;18313;48.518;9.124;2023-03-11T09:06:15;4.80;99.00
31735;DHT22;18313;48.518;9.124;2023-03-11T09:08:43;4.90;99.60
31735;DHT22;18313;48.518;9.124;2023-03-11T09:11:11;5.30;98.10
31735;DHT22;18313;48.518;9.124;2023-03-11T09:13:41;5.70;99.00
31735;DHT22;18313;48.518;9.124;2023-03-11T09:16:12;5.80;99.10
31735;DHT22;18313;48.518;9.124;2023-03-11T09:18:40;6.00;97.50
31735;DHT22;18313;48.518;9.124;2023-03-11T09:21:08;6.20;98.00
31735;DHT22;18313;48.518;9.124;2023-03-11T09:23:35;6.50;97.50
31735;DHT22;18313;48.518;9.124;2023-03-11T09:26:03;6.70;94.90
31735;DHT22;18313;48.518;9.124;2023-03-11T09:28:30;6.90;94.90
31735;DHT22;18313;48.518;9.124;2023-03-11T09:30:58;6.80;94.10
31735;DHT22;18313;48.518;9.124;2023-03-11T09:33:25;6.60;94.00
31735;DHT22;18313;48.518;9.124;2023-03-11T09:35:52;6.40;96.40
31735;DHT22;18313;48.518;9.124;2023-03-11T09:38:19;6.40;97.20
31735;DHT22;18313;48.518;9.124;2023-03-11T09:58:01;5.70;94.50
31735;DHT22;18313;48.518;9.124;2023-03-11T10:00:29;5.80;93.20
31735;DHT22;18313;48.518;9.124;2023-03-11T10:03:00;6.10;94.80
31735;DHT22;18313;48.518;9.124;2023-03-11T10:05:29;6.50;94.40
31735;DHT22;18313;48.518;9.124;2023-03-11T10:11:18;7.40;93.30
31735;DHT22;18313;48.518;9.124;2023-03-11T10:14:14;7.50;91.60
31735;DHT22;18313;48.518;9.124;2023-03-11T10:16:55;7.70;92.40
31735;DHT22;18313;48.518;9.124;2023-03-11T10:19:41;7.60;90.20
31735;DHT22;18313;48.518;9.124;2023-03-11T10:25:08;7.20;93.00
31735;DHT22;18313;48.518;9.124;2023-03-11T10:27:44;7.50;91.40
31735;DHT22;18313;48.518;9.124;2023-03-11T10:35:39;7.10;92.20
31735;DHT22;18313;48.518;9.124;2023-03-11T10:40:38;7.30;93.10
31735;DHT22;18313;48.518;9.124;2023-03-11T10:43:18;7.80;93.20
31735;DHT22;18313;48.518;9.124;2023-03-11T10:45:48;8.30;92.00
31735;DHT22;18313;48.518;9.124;2023-03-11T10:48:18;8.60;92.30
31735;DHT22;18313;48.518;9.124;2023-03-11T10:53:29;9.10;90.60
31735;DHT22;18313;48.518;9.124;2023-03-11T10:55:58;9.10;91.10
31735;DHT22;18313;48.518;9.124;2023-03-11T10:58:28;9.20;90.20
31735;DHT22;18313;48.518;9.124;2023-03-11T11:03:32;8.40;90.90
31735;DHT22;18313;48.518;9.124;2023-03-11T11:06:05;8.10;91.20
31735;DHT22;18313;48.518;9.124;2023-03-11T11:08:32;7.90;90.70
31735;DHT22;18313;48.518;9.124;2023-03-11T11:11:02;7.70;89.40
31735;DHT22;18313;48.518;9.124;2023-03-11T11:13:32;7.50;91.00
31735;DHT22;18313;48.518;9.124;2023-03-11T11:16:05;7.50;90.30
31735;DHT22;18313;48.518;9.124;2023-03-11T11:18:47;8.10;92.90
31735;DHT22;18313;48.518;9.124;2023-03-11T11:21:39;8.70;92.00
31735;DHT22;18313;48.518;9.124;2023-03-11T11:24:25;9.00;86.50
31735;DHT22;18313;48.518;9.124;2023-03-11T11:27:20;8.90;87.20
31735;DHT22;18313;48.518;9.124;2023-03-11T11:30:06;8.70;88.40
31735;DHT22;18313;48.518;9.124;2023-03-11T11:32:40;9.20;88.40
31735;DHT22;18313;48.518;9.124;2023-03-11T11:35:12;9.30;85.90
31735;DHT22;18313;48.518;9.124;2023-03-11T11:37:44;9.70;84.40
31735;DHT22;18313;48.518;9.124;2023-03-11T11:40:28;10.00;82.40
31735;DHT22;18313;48.518;9.124;2023-03-11T11:43:03;10.20;87.40
31735;DHT22;18313;48.518;9.124;2023-03-11T11:45:45;10.50;86.30
31735;DHT22;18313;48.518;9.124;2023-03-11T11:48:21;10.30;85.40
31735;DHT22;18313;48.518;9.124;2023-03-11T11:51:15;10.20;86.60
31735;DHT22;18313;48.518;9.124;2023-03-11T11:53:55;10.20;83.60
31735;DHT22;18313;48.518;9.124;2023-03-11T11:56:24;10.10;81.80
31735;DHT22;18313;48.518;9.124;2023-03-11T11:58:52;10.00;82.90
31735;DHT22;18313;48.518;9.124;2023-03-11T12:01:41;10.10;81.80
31735;DHT22;18313;48.518;9.124;2023-03-11T12:07:23;10.60;79.70
31735;DHT22;18313;48.518;9.124;2023-03-11T12:10:17;10.90;82.60
31735;DHT22;18313;48.518;9.124;2023-03-11T12:12:59;11.40;77.00
31735;DHT22;18313;48.518;9.124;2023-03-11T12:15:40;11.70;80.00
31735;DHT22;18313;48.518;9.124;2023-03-11T12:18:35;11.70;74.00
31735;DHT22;18313;48.518;9.124;2023-03-11T12:26:27;11.60;74.80
31735;DHT22;18313;48.518;9.124;2023-03-11T12:29:11;11.50;74.70
31735;DHT22;18313;48.518;9.124;2023-03-11T12:31:43;11.50;81.30
31735;DHT22;18313;48.518;9.124;2023-03-11T12:34:13;11.80;79.30
31735;DHT22;18313;48.518;9.124;2023-03-11T12:36:44;12.10;77.80
31735;DHT22;18313;48.518;9.124;2023-03-11T12:39:34;12.10;78.00
31735;DHT22;18313;48.518;9.124;2023-03-11T12:42:37;12.00;70.00
31735;DHT22;18313;48.518;9.124;2023-03-11T12:45:46;11.50;70.40
31735;DHT22;18313;48.518;9.124;2023-03-11T12:50:53;11.60;77.30
31735;DHT22;18313;48.518;9.124;2023-03-11T12:53:44;11.70;76.80
31735;DHT22;18313;48.518;9.124;2023-03-11T12:59:54;11.90;73.40
31735;DHT22;18313;48.518;9.124;2023-03-11T13:04:37;11.80;76.40
31735;DHT22;18313;48.518;9.124;2023-03-11T13:07:26;11.90;71.40
31735;DHT22;18313;48.518;9.124;2023-03-11T13:10:09;11.80;70.80
31735;DHT22;18313;48.518;9.124;2023-03-11T13:12:49;11.80;75.70
31735;DHT22;18313;48.518;9.124;2023-03-11T13:26:01;11.80;79.00
31735;DHT22;18313;48.518;9.124;2023-03-11T13:31:54;11.60;73.00
31735;DHT22;18313;48.518;9.124;2023-03-11T13:34:46;11.70;73.00
31735;DHT22;18313;48.518;9.124;2023-03-11T13:37:33;11.80;73.00
31735;DHT22;18313;48.518;9.124;2023-03-11T13:42:49;11.80;75.10
31735;DHT22;18313;48.518;9.124;2023-03-11T13:45:27;11.80;67.40
31735;DHT22;18313;48.518;9.124;2023-03-11T13:48:11;11.70;68.70
31735;DHT22;18313;48.518;9.124;2023-03-11T13:50:43;11.10;70.70
31735;DHT22;18313;48.518;9.124;2023-03-11T13:53:37;11.30;71.40
31735;DHT22;18313;48.518;9.124;2023-03-11T13:56:17;11.40;71.50
31735;DHT22;18313;48.518;9.124;2023-03-11T13:58:44;11.50;68.20
31735;DHT22;18313;48.518;9.124;2023-03-11T14:01:15;11.40;67.20
31735;DHT22;18313;48.518;9.124;2023-03-11T14:03:45;11.10;67.50
31735;DHT22;18313;48.518;9.124;2023-03-11T14:06:17;11.00;68.20
31735;DHT22;18313;48.518;9.124;2023-03-11T14:08:56;11.30;69.80
31735;DHT22;18313;48.518;9.124;2023-03-11T14:11:28;11.70;66.50
31735;DHT22;18313;48.518;9.124;2023-03-11T14:13:55;11.70;70.90
31735;DHT22;18313;48.518;9.124;2023-03-11T14:19:16;11.80;69.00
31735;DHT22;18313;48.518;9.124;2023-03-11T14:21:45;12.00;68.30
31735;DHT22;18313;48.518;9.124;2023-03-11T14:24:29;12.10;70.40
31735;DHT22;18313;48.518;9.124;2023-03-11T14:26:58;12.30;69.80
31735;DHT22;18313;48.518;9.124;2023-03-11T14:29:39;12.20;70.10
31735;DHT22;18313;48.518;9.124;2023-03-11T14:32:27;12.00;67.60
31735;DHT22;18313;48.518;9.124;2023-03-11T14:34:55;11.60;67.00
31735;DHT22;18313;48.518;9.124;2023-03-11T14:37:36;11.50;67.90
31735;DHT22;18313;48.518;9.124;2023-03-11T14:40:22;11.40;65.10
31735;DHT22;18313;48.518;9.124;2023-03-11T14:42:49;11.20;69.10
31735;DHT22;18313;48.518;9.124;2023-03-11T14:45:25;11.30;67.60
31735;DHT22;18313;48.518;9.124;2023-03-11T14:48:14;11.50;71.30
31735;DHT22;18313;48.518;9.124;2023-03-11T14:50:45;11.80;68.20
31735;DHT22;18313;48.518;9.124;2023-03-11T14:53:27;11.80;67.80
31735;DHT22;18313;48.518;9.124;2023-03-11T14:55:58;11.60;65.10
31735;DHT22;18313;48.518;9.124;2023-03-11T14:58:40;11.30;68.80
31735;DHT22;18313;48.518;9.124;2023-03-11T15:01:18;11.20;68.80
31735;DHT22;18313;48.518;9.124;2023-03-11T15:06:27;11.20;68.30
31735;DHT22;18313;48.518;9.124;2023-03-11T15:09:08;11.20;67.00
31735;DHT22;18313;48.518;9.124;2023-03-11T15:11:49;11.30;67.60
31735;DHT22;18313;48.518;9.124;2023-03-11T15:14:24;11.20;68.80
31735;DHT22;18313;48.518;9.124;2023-03-11T15:16:53;10.90;69.90
31735;DHT22;18313;48.518;9.124;2023-03-11T15:21:55;10.60;71.10
31735;DHT22;18313;48.518;9.124;2023-03-11T15:24:28;10.60;71.60
31735;DHT22;18313;48.518;9.124;2023-03-11T15:27:15;10.50;71.10
31735;DHT22;18313;48.518;9.124;2023-03-11T15:29:51;10.40;71.60
31735;DHT22;18313;48.518;9.124;2023-03-11T15:32:40;10.50;71.60
31735;DHT22;18313;48.518;9.124;2023-03-11T15:37:36;10.30;71.00
31735;DHT22;18313;48.518;9.124;2023-03-11T15:40:18;10.30;70.80
31735;DHT22;18313;48.518;9.124;2023-03-11T15:42:48;10.10;72.20
31735;DHT22;18313;48.518;9.124;2023-03-11T15:45:17;10.00;73.10
31735;DHT22;18313;48.518;9.124;2023-03-11T15:47:47;10.10;72.70
31735;DHT22;18313;48.518;9.124;2023-03-11T15:52:55;10.10;71.70
31735;DHT22;18313;48.518;9.124;2023-03-11T15:55:24;10.10;71.80
31735;DHT22;18313;48.518;9.124;2023-03-11T15:58:02;10.00;72.40
31735;DHT22;18313;48.518;9.124;2023-03-11T16:00:31;10.00;71.10
31735;DHT22;18313;48.518;9.124;2023-03-11T16:02:59;9.80;73.00
31735;DHT22;18313;48.518;9.124;2023-03-11T16:05:27;9.70;71.80
31735;DHT22;18313;48.518;9.124;2023-03-11T16:07:55;9.60;69.10
31735;DHT22;18313;48.518;9.124;2023-03-11T16:10:23;9.30;69.50
31735;DHT22;18313;48.518;9.124;2023-03-11T16:12:51;9.20;70.00
31735;DHT22;18313;48.518;9.124;2023-03-11T16:15:27;9.00;72.90
31735;DHT22;18313;48.518;9.124;2023-03-11T16:17:58;8.90;71.90
31735;DHT22;18313;48.518;9.124;2023-03-11T16:20:28;8.90;73.80
31735;DHT22;18313;48.518;9.124;2023-03-11T16:22:57;8.80;72.80
31735;DHT22;18313;48.518;9.124;2023-03-11T16:25:31;8.80;75.10
31735;DHT22;18313;48.518;9.124;2023-03-11T16:27:59;8.80;73.30
31735;DHT22;18313;48.518;9.124;2023-03-11T16:30:28;8.70;75.30
31735;DHT22;18313;48.518;9.124;2023-03-11T16:32:56;8.40;72.80
31735;DHT22;18313;48.518;9.124;2023-03-11T16:35:23;8.30;73.90
31735;DHT22;18313;48.518;9.124;2023-03-11T16:37:50;8.20;74.10
31735;DHT22;18313;48.518;9.124;2023-03-11T16:40:23;8.00;75.90
31735;DHT22;18313;48.518;9.124;2023-03-11T16:43:00;7.50;78.50
31735;DHT22;18313;48.518;9.124;2023-03-11T16:45:27;7.30;78.80
31735;DHT22;18313;48.518;9.124;2023-03-11T16:47:55;7.00;80.70
31735;DHT22;18313;48.518;9.124;2023-03-11T16:50:22;6.80;81.20
31735;DHT22;18313;48.518;9.124;2023-03-11T16:52:51;6.60;82.40
31735;DHT22;18313;48.518;9.124;2023-03-11T16:55:18;6.50;83.70
31735;DHT22;18313;48.518;9.124;2023-03-11T16:57:46;6.50;83.50
31735;DHT22;18313;48.518;9.124;2023-03-11T17:00:14;6.30;83.40
31735;DHT22;18313;48.518;9.124;2023-03-11T17:02:41;6.10;84.40
31735;DHT22;18313;48.518;9.124;2023-03-11T17:05:09;6.10;86.30
31735;DHT22;18313;48.518;9.124;2023-03-11T17:07:38;6.10;85.50
31735;DHT22;18313;48.518;9.124;2023-03-11T17:10:07;6.00;85.70
31735;DHT22;18313;48.518;9.124;2023-03-11T17:12:36;6.00;86.60
31735;DHT22;18313;48.518;9.124;2023-03-11T17:15:04;5.90;86.20
31735;DHT22;18313;48.518;9.124;2023-03-11T17:17:32;5.90;86.50
31735;DHT22;18313;48.518;9.124;2023-03-11T17:19:59;5.80;87.10
31735;DHT22;18313;48.518;9.124;2023-03-11T17:22:26;5.80;87.30
31735;DHT22;18313;48.518;9.124;2023-03-11T17:24:53;5.80;88.00
31735;DHT22;18313;48.518;9.124;2023-03-11T17:27:21;5.80;88.00
31735;DHT22;18313;48.518;9.124;2023-03-11T17:29:48;5.60;88.40
31735;DHT22;18313;48.518;9.124;2023-03-11T17:32:15;5.60;88.80
31735;DHT22;18313;48.518;9.124;2023-03-11T17:34:43;5.60;89.10